»·PEaware :: N741SG KSNA-KAVX

N741SG :: KSNA-KAVX

FLIGHT INFORMATION

Flight Status: Arrived
Operator: Privately registered:
United States
More flights under this callsign
Pilot: Carl R. (23234)
Aircraft: BEECH AIRCRAFT BARON
(BE58)
More flights by this aircraft type
Origin: KSNA John Wayne-Orange Co
United States
Destination: KAVX Catalina
United States
More flights between these airports :: More routes between these airports
Route: SLI V21 SXC
File this flight plan on PilotEdge
Remarks: I-07
Altitude:
(Current/Filed)
4,000ft
Speed:
(Current/Filed)
170kts
Departed: 05-Feb-19 09:51 AM
Arrived: 05-Feb-19 10:21 AM
Distance/Time
Traveled:
32nm/0:30
Distance/Time
To Go:
Arrived

Flight Plot

Page will automatically refresh every two minutes.


Map Options




Map Legend


Flown Route
Filed Route
Departure Airport
Arrival Airport
Navaid (VOR, NDB)
Fix

Horizontal Profiles

Position Reports

Time Latitude Longitude Heading Altitude Ground
Speed
05-Feb-19 09:39 33.672813 -117.872889 205 60ft 0kts
05-Feb-19 09:40 33.672813 -117.872889 206 60ft 0kts
05-Feb-19 09:41 33.672813 -117.872889 206 60ft 0kts
05-Feb-19 09:42 33.672813 -117.872889 206 60ft 0kts
05-Feb-19 09:43 33.672813 -117.872889 206 60ft 0kts
05-Feb-19 09:44 33.672813 -117.872889 206 60ft 0kts
05-Feb-19 09:45 33.672544 -117.872338 53 60ft 6kts
05-Feb-19 09:46 33.676111 -117.870053 27 60ft 16kts
05-Feb-19 09:47 33.680231 -117.867640 27 60ft 15kts
05-Feb-19 09:48 33.681188 -117.866386 117 60ft 0kts
05-Feb-19 09:49 33.681188 -117.866386 117 60ft 0kts
05-Feb-19 09:50 33.681133 -117.866257 117 60ft 5kts
05-Feb-19 09:50 33.672256 -117.870948 206 148ft 110kts
05-Feb-19 09:51 33.651208 -117.895712 232 1927ft 110kts
05-Feb-19 09:53 33.636110 -117.940792 311 3122ft 143kts
05-Feb-19 09:54 33.666520 -117.972478 319 3986ft 159kts
05-Feb-19 09:55 33.696092 -118.011391 275 3977ft 162kts
05-Feb-19 09:55 33.697620 -118.057252 271 3971ft 167kts
05-Feb-19 09:56 33.699122 -118.113741 270 3970ft 169kts
05-Feb-19 09:58 33.664064 -118.161791 216 3970ft 169kts
05-Feb-19 09:58 33.632606 -118.190033 216 3970ft 169kts
05-Feb-19 09:59 33.594647 -118.224019 216 3970ft 169kts
05-Feb-19 10:00 33.556693 -118.257963 216 3970ft 169kts
05-Feb-19 10:01 33.518821 -118.291796 216 3970ft 169kts
05-Feb-19 10:02 33.480740 -118.325190 203 3964ft 169kts
05-Feb-19 10:03 33.434893 -118.337646 191 3970ft 169kts
05-Feb-19 10:04 33.388734 -118.349213 191 3970ft 169kts
05-Feb-19 10:05 33.342448 -118.360799 191 3970ft 169kts
05-Feb-19 10:06 33.325515 -118.396095 325 3969ft 167kts
05-Feb-19 10:07 33.369025 -118.417023 343 3968ft 169kts
05-Feb-19 10:08 33.414608 -118.414077 6 3949ft 138kts
05-Feb-19 10:09 33.448661 -118.409802 5 3971ft 122kts
05-Feb-19 10:10 33.482390 -118.407343 338 3713ft 120kts
05-Feb-19 10:11 33.508669 -118.432346 319 3437ft 122kts
05-Feb-19 10:12 33.528138 -118.417357 121 3446ft 126kts
05-Feb-19 10:13 33.500471 -118.398650 190 3279ft 125kts
05-Feb-19 10:14 33.465570 -118.405585 188 2813ft 127kts
05-Feb-19 10:15 33.430872 -118.411390 187 2334ft 125kts
05-Feb-19 10:16 33.402929 -118.426584 235 1978ft 104kts
05-Feb-19 10:17 33.401852 -118.421045 52 1677ft 91kts
05-Feb-19 10:18 33.420022 -118.410873 300 2169ft 111kts
05-Feb-19 10:19 33.400358 -118.438827 181 2341ft 104kts
05-Feb-19 10:20 33.404907 -118.415971 58 1606ft 28kts
05-Feb-19 10:21 33.403107 -118.415844 295 1606ft 6kts
05-Feb-19 10:22 33.403160 -118.415858 37 1606ft 0kts
05-Feb-19 10:23 33.403160 -118.415858 37 1606ft 0kts
05-Feb-19 10:24 33.403160 -118.415858 37 1606ft 0kts
05-Feb-19 10:25 33.403160 -118.415858 37 1606ft 0kts
05-Feb-19 10:26 33.403160 -118.415858 37 1606ft 0kts
05-Feb-19 10:27 33.403160 -118.415858 37 1606ft 0kts
05-Feb-19 10:28 33.403160 -118.415858 37 1606ft 0kts
05-Feb-19 10:29 33.403160 -118.415858 37 1606ft 0kts
05-Feb-19 10:30 33.403160 -118.415858 37 1606ft 0kts
05-Feb-19 10:31 33.403160 -118.415858 37 1606ft 0kts
05-Feb-19 10:32 33.403160 -118.415858 37 1606ft 0kts
05-Feb-19 10:33 33.403160 -118.415858 37 1606ft 0kts
05-Feb-19 10:34 33.403160 -118.415858 37 1606ft 0kts

Navigation Log

Ident Type
Flight plan parsing failed, navigation log unavailable